Myrtle Beach, SC

8:23 AM EDT on August 24, 2016 (GMT -0400)
Green Lake | | Change Station

Elev 39 ft 33.78 °N, 78.78 °W | Updated 49 seconds ago

Clear
Clear
71.2 °F
Feels Like 71.2 °F
N
0.0
Wind Variable Wind from NNW
Gusts 2.0 mph

Today
High -- | Low -- °F
--% Chance of Precip.
Yesterday
High -- | Low -- °F
Precip. -- in
Pressure 30.26 in
Visibility 10.0 miles
Clouds Clear
Dew Point 67 °F
Humidity 87%
Rainfall 0.00 in
Snow Depth Not available.
6:43 AM 7:50 PM
Waning Gibbous, 57% visible
METAR KCRE 241153Z 02005KT 10SM CLR 22/18 A3026 RMK AO1 SLP247 T02220183 10233 20200 51012
Pressure 30.26 in
Visibility 10.0 miles
Clouds Clear
Dew Point 67 °F
Humidity 87%
Rainfall 0.00 in
Snow Depth Not available.
6:43 AM 7:50 PM
Waning Gibbous, 57% visible
METAR KCRE 241153Z 02005KT 10SM CLR 22/18 A3026 RMK AO1 SLP247 T02220183 10233 20200 51012

10-Day Weather Forecast

Almanac

Astronomy

Aug. 24, 2016 Rise Set
Actual Time
Civil Twilight
Nautical Twilight
Astronomical Twilight
Moon
Length of Visible Light
Length of Day
Tomorrow will be .
, % of the Moon is Illuminated

Today's Extremes

State Highs State Lows

Community

WunderPhotos

Upload Photos

1,934,579 photos uploaded!

WunderBlog® & News

Nearby

Air Quality

  Air Quality AQ Index Pollutant
Not available.

Snow Depth

Station Depth Elevation

Earthquake Activity

City Distance Mag. Time & Date
Minimum magnitude displayed is 2.5.

Coastal Water Temperatures

Place Temperature

Stations

Nearby Weather Stations

Station Location Temp. Windchill Dew Point Humidity Wind Precip. Elev Updated Type
                   

Watches & Warnings

There are currently no watches in effect.